createdAt,value
2023-09-14T00:00:03.380Z,22.5
2023-09-14T00:01:02.255Z,22.2
2023-09-14T00:02:02.161Z,22.5
2023-09-14T00:03:01.849Z,22.4
2023-09-14T00:04:02.050Z,22.2
2023-09-14T00:05:02.357Z,22.6
2023-09-14T00:06:02.188Z,22.3
2023-09-14T00:07:02.314Z,22.5
2023-09-14T00:08:02.212Z,22.4
2023-09-14T00:09:02.164Z,22.9
2023-09-14T00:10:02.127Z,22.7
2023-09-14T00:11:02.194Z,22.1
2023-09-14T00:12:02.081Z,22.9
2023-09-14T00:13:02.196Z,22.8
2023-09-14T00:14:02.095Z,22.8
2023-09-14T00:15:01.974Z,23
2023-09-14T00:16:01.994Z,23.2
2023-09-14T00:17:01.956Z,22.8
2023-09-14T00:18:01.831Z,23
2023-09-14T00:19:01.764Z,22.6
2023-09-14T00:20:01.750Z,22.9
2023-09-14T00:21:01.609Z,23
2023-09-14T00:22:01.633Z,22.7
2023-09-14T00:23:01.514Z,22.4
2023-09-14T00:24:01.485Z,22.1
2023-09-14T00:25:01.460Z,22.8
2023-09-14T00:26:01.400Z,22.3
2023-09-14T00:27:02.386Z,23
2023-09-14T00:28:02.251Z,23
2023-09-14T00:29:02.350Z,22.6
2023-09-14T00:30:02.302Z,23.2
2023-09-14T00:31:02.114Z,23.2
2023-09-14T00:32:02.368Z,23.3
2023-09-14T00:33:02.218Z,22.9
2023-09-14T00:34:02.385Z,22.3
2023-09-14T00:35:02.208Z,22.8
2023-09-14T00:36:02.405Z,22.7
2023-09-14T00:37:02.185Z,22.8
2023-09-14T00:38:02.245Z,22.5
2023-09-14T00:39:02.073Z,22
2023-09-14T00:40:02.068Z,22.6
2023-09-14T00:41:01.947Z,23
2023-09-14T00:42:02.093Z,22.5
2023-09-14T00:43:02.024Z,22.6
2023-09-14T00:44:01.909Z,23
2023-09-14T00:45:01.864Z,23.1
2023-09-14T00:46:01.935Z,22.2
2023-09-14T00:47:01.903Z,22
2023-09-14T00:48:01.865Z,22.6
2023-09-14T00:49:01.789Z,22.7
2023-09-14T00:50:01.752Z,22.5
2023-09-14T00:51:01.646Z,22.8
2023-09-14T00:52:01.722Z,23.3
2023-09-14T00:53:01.594Z,23.2
2023-09-14T00:54:01.613Z,22.4
2023-09-14T00:55:01.415Z,22.9
2023-09-14T00:56:01.507Z,22.7
2023-09-14T00:57:01.359Z,23.1
2023-09-14T00:58:01.763Z,23.2
2023-09-14T00:59:01.694Z,23.1
2023-09-14T01:00:02.553Z,23.5
2023-09-14T01:01:02.245Z,23.2
2023-09-14T01:02:02.387Z,23.3
2023-09-14T01:03:01.593Z,23.4
2023-09-14T01:04:02.163Z,23.6
2023-09-14T01:05:01.451Z,23.6
2023-09-14T01:06:01.447Z,23.4
2023-09-14T01:07:01.325Z,23.4
2023-09-14T01:08:02.352Z,23.3
2023-09-14T01:09:02.247Z,23.2
2023-09-14T01:10:02.719Z,23.2
2023-09-14T01:11:01.656Z,23.2
2023-09-14T01:12:01.654Z,23.2
2023-09-14T01:13:01.504Z,22.9
2023-09-14T01:14:01.480Z,23.1
2023-09-14T01:15:01.393Z,22.8
2023-09-14T01:16:01.524Z,23.1
2023-09-14T01:17:01.576Z,23
2023-09-14T01:18:01.390Z,22.9
2023-09-14T01:19:01.601Z,23.2
2023-09-14T01:20:01.322Z,23.1
2023-09-14T01:21:02.475Z,22.3
2023-09-14T01:22:02.336Z,22.1
2023-09-14T01:23:02.334Z,22.3
2023-09-14T01:24:02.197Z,22.8
2023-09-14T01:25:02.382Z,23.1
2023-09-14T01:26:02.174Z,23.2
2023-09-14T01:27:02.248Z,23.2
2023-09-14T01:28:02.153Z,23.2
2023-09-14T01:29:02.131Z,23.1
2023-09-14T01:30:02.010Z,23
2023-09-14T01:31:02.038Z,23.3
2023-09-14T01:32:02.021Z,23.1
2023-09-14T01:33:01.917Z,23.2
2023-09-14T01:34:01.968Z,23.2
2023-09-14T01:35:02.035Z,23.2
2023-09-14T01:36:01.889Z,23.3
2023-09-14T01:37:01.812Z,23
2023-09-14T01:38:03.395Z,23.1
2023-09-14T01:39:01.736Z,23.2
2023-09-14T01:40:01.820Z,22.9
2023-09-14T01:41:01.800Z,23.3
2023-09-14T01:42:01.560Z,23.4
2023-09-14T01:43:01.644Z,22.6
2023-09-14T01:44:01.487Z,23
2023-09-14T01:45:01.345Z,23
2023-09-14T01:46:02.393Z,22.6
2023-09-14T01:47:01.419Z,22.8
2023-09-14T01:48:01.424Z,23.1
2023-09-14T01:49:01.335Z,23.3
2023-09-14T01:50:02.426Z,23.4
2023-09-14T01:51:02.252Z,23.4
2023-09-14T01:52:02.413Z,23.3
2023-09-14T01:53:02.208Z,23.3
2023-09-14T01:54:02.266Z,23.1
2023-09-14T01:55:02.143Z,23.4
2023-09-14T01:56:02.177Z,23.2
2023-09-14T01:57:01.999Z,22.9
2023-09-14T01:58:02.257Z,23.1
2023-09-14T01:59:02.027Z,23.3
2023-09-14T02:00:03.021Z,23.3
2023-09-14T02:01:01.831Z,23.4
2023-09-14T02:02:01.904Z,22.8
2023-09-14T02:03:01.637Z,23
2023-09-14T02:04:01.656Z,23.2
2023-09-14T02:05:01.458Z,23.1
2023-09-14T02:06:01.366Z,23.3
2023-09-14T02:07:02.511Z,23.1
2023-09-14T02:08:01.334Z,23.4
2023-09-14T02:09:01.299Z,23.3
2023-09-14T02:10:02.355Z,22.8
2023-09-14T02:11:02.287Z,22.9
2023-09-14T02:12:02.191Z,23
2023-09-14T02:13:02.271Z,22.9
2023-09-14T02:14:02.128Z,22.9
2023-09-14T02:15:02.033Z,22.8
2023-09-14T02:16:02.198Z,22.9
2023-09-14T02:17:02.298Z,22.9
2023-09-14T02:18:02.251Z,22.9
2023-09-14T02:19:02.381Z,22.6
2023-09-14T02:20:02.225Z,23.2
2023-09-14T02:21:02.348Z,22.9
2023-09-14T02:22:02.196Z,22.6
2023-09-14T02:23:01.927Z,22.4
2023-09-14T02:24:01.951Z,21.8
2023-09-14T02:25:01.928Z,22.4
2023-09-14T02:26:01.768Z,22.2
2023-09-14T02:27:01.843Z,22
2023-09-14T02:28:01.642Z,22.6
2023-09-14T02:29:01.582Z,22.7
2023-09-14T02:30:01.444Z,22.7
2023-09-14T02:31:01.318Z,22.8
2023-09-14T02:32:02.324Z,22.5
2023-09-14T02:33:02.140Z,22.7
2023-09-14T02:34:02.196Z,22.8
2023-09-14T02:35:02.074Z,22.4
2023-09-14T02:36:02.137Z,22.1
2023-09-14T02:37:02.006Z,22.5
2023-09-14T02:38:02.119Z,22.6
2023-09-14T02:39:01.926Z,22.3
2023-09-14T02:40:01.929Z,22.5
2023-09-14T02:41:01.973Z,22.7
2023-09-14T02:42:01.831Z,22.6
2023-09-14T02:43:01.779Z,22.3
2023-09-14T02:44:02.148Z,22
2023-09-14T02:45:01.774Z,22.3
2023-09-14T02:46:01.695Z,22.6
2023-09-14T02:47:02.005Z,21.9
2023-09-14T02:48:01.927Z,22.1
2023-09-14T02:49:02.077Z,22.4
2023-09-14T02:50:02.140Z,22.3
2023-09-14T02:51:01.942Z,22.5
2023-09-14T02:52:01.984Z,22.5
2023-09-14T02:53:01.910Z,22.2
2023-09-14T02:54:01.770Z,22.2
2023-09-14T02:55:01.765Z,22.4
2023-09-14T02:56:01.648Z,22.8
2023-09-14T02:57:01.623Z,22.1
2023-09-14T02:58:01.527Z,22.5
2023-09-14T02:59:01.551Z,22.2
2023-09-14T03:00:02.636Z,22.3
2023-09-14T03:01:02.291Z,22.1
2023-09-14T03:02:02.493Z,22.1
2023-09-14T03:03:01.386Z,22.2
2023-09-14T03:04:01.559Z,22.4
2023-09-14T03:05:01.470Z,22.6
2023-09-14T03:06:02.334Z,22.6
2023-09-14T03:07:02.208Z,22.3
2023-09-14T03:08:02.308Z,22.5
2023-09-14T03:09:02.183Z,22
2023-09-14T03:10:02.381Z,21.7
2023-09-14T03:11:02.198Z,21.9
2023-09-14T03:12:02.241Z,21.9
2023-09-14T03:13:02.129Z,21.9
2023-09-14T03:14:02.152Z,21.7
2023-09-14T03:15:02.115Z,21.6
2023-09-14T03:16:02.132Z,21.7
2023-09-14T03:17:02.116Z,22.1
2023-09-14T03:18:02.036Z,22.1
2023-09-14T03:19:02.059Z,21.9
2023-09-14T03:20:02.097Z,21.6
2023-09-14T03:21:01.973Z,21.6
2023-09-14T03:22:01.879Z,21.9
2023-09-14T03:23:01.978Z,21.7
2023-09-14T03:24:01.676Z,21.6
2023-09-14T03:25:01.830Z,21.4
2023-09-14T03:26:01.644Z,21.5
2023-09-14T03:27:01.642Z,21.3
2023-09-14T03:28:01.495Z,21.3
2023-09-14T03:29:01.647Z,21.5
2023-09-14T03:30:01.671Z,21.1
2023-09-14T03:31:01.713Z,21.1
2023-09-14T03:32:01.732Z,21.2
2023-09-14T03:33:01.771Z,21.5
2023-09-14T03:34:01.647Z,21.1
2023-09-14T03:35:01.632Z,21.3
2023-09-14T03:36:01.465Z,21.3
2023-09-14T03:37:01.447Z,21.5
2023-09-14T03:38:01.535Z,21.3
2023-09-14T03:39:02.367Z,21.3
2023-09-14T03:40:02.307Z,21.3
2023-09-14T03:41:02.231Z,21
2023-09-14T03:42:02.121Z,21.3
2023-09-14T03:43:01.521Z,21.3
2023-09-14T03:44:01.593Z,21.5
2023-09-14T03:45:01.345Z,21.3
2023-09-14T03:46:01.956Z,21.4
2023-09-14T03:47:01.909Z,21.6
2023-09-14T03:48:01.719Z,21.9
2023-09-14T03:49:01.665Z,21.7
2023-09-14T03:50:01.709Z,22.1
2023-09-14T03:51:01.507Z,22.1
2023-09-14T03:52:01.698Z,21.8
2023-09-14T03:53:01.469Z,21.6
2023-09-14T03:54:01.487Z,21.7
2023-09-14T03:55:01.338Z,21.9
2023-09-14T03:56:02.471Z,22.1
2023-09-14T03:57:02.244Z,21.3
2023-09-14T03:58:02.247Z,21.2
2023-09-14T03:59:02.151Z,21.7
2023-09-14T04:00:02.227Z,21.4
2023-09-14T04:01:02.110Z,21.7
2023-09-14T04:02:02.161Z,22
2023-09-14T04:03:02.040Z,22
2023-09-14T04:04:02.083Z,21.6
2023-09-14T04:05:01.900Z,21.8
2023-09-14T04:06:01.906Z,21.8
2023-09-14T04:07:02.044Z,21.7
2023-09-14T04:08:01.857Z,21.7
2023-09-14T04:09:01.730Z,21
2023-09-14T04:10:01.751Z,21
2023-09-14T04:11:01.566Z,21.5
2023-09-14T04:12:01.595Z,21.5
2023-09-14T04:13:01.393Z,21.5
2023-09-14T04:14:01.455Z,22.1
2023-09-14T04:15:02.349Z,21.9
2023-09-14T04:16:02.316Z,21.7
2023-09-14T04:17:01.431Z,21.8
2023-09-14T04:18:01.361Z,21.5
2023-09-14T04:19:02.517Z,21.5
2023-09-14T04:20:01.298Z,21.1
2023-09-14T04:21:02.270Z,21.6
2023-09-14T04:22:02.242Z,21.6
2023-09-14T04:23:02.239Z,21.3
2023-09-14T04:24:02.091Z,21.8
2023-09-14T04:25:02.253Z,21.8
2023-09-14T04:26:02.120Z,22.1
2023-09-14T04:27:02.140Z,21.8
2023-09-14T04:28:02.048Z,21.3
2023-09-14T04:29:01.968Z,21.3
2023-09-14T04:30:01.833Z,21.2
2023-09-14T04:31:02.045Z,21.2
2023-09-14T04:32:01.407Z,21
2023-09-14T04:33:01.359Z,21.2
2023-09-14T04:34:02.379Z,21.3
2023-09-14T04:35:02.189Z,21.3
2023-09-14T04:36:02.390Z,21.4
2023-09-14T04:37:02.212Z,21.6
2023-09-14T04:38:02.277Z,21.7
2023-09-14T04:39:02.115Z,22.1
2023-09-14T04:40:02.174Z,21.1
2023-09-14T04:41:02.144Z,20.7
2023-09-14T04:42:02.111Z,20.7
2023-09-14T04:43:01.855Z,20.6
2023-09-14T04:44:02.063Z,21.2
2023-09-14T04:45:02.106Z,20.8
2023-09-14T04:46:02.142Z,21
2023-09-14T04:47:02.222Z,20.9
2023-09-14T04:48:02.222Z,20.7
2023-09-14T04:49:02.152Z,20.3
2023-09-14T04:50:02.234Z,20.4
2023-09-14T04:51:02.103Z,20.5
2023-09-14T04:52:02.204Z,20.8
2023-09-14T04:53:02.043Z,20.2
2023-09-14T04:54:01.968Z,20
2023-09-14T04:55:02.376Z,20.2
2023-09-14T04:56:02.329Z,20.2
2023-09-14T04:57:02.219Z,20.6
2023-09-14T04:58:02.397Z,20
2023-09-14T04:59:01.852Z,20.1
2023-09-14T05:00:03.370Z,19.7
2023-09-14T05:01:01.664Z,20
2023-09-14T05:02:01.597Z,20.3
2023-09-14T05:03:01.492Z,20.2
2023-09-14T05:04:03.650Z,20.1
2023-09-14T05:05:01.589Z,20.3
2023-09-14T05:06:01.507Z,20
2023-09-14T05:07:01.394Z,19.9
2023-09-14T05:08:01.377Z,20.1
2023-09-14T05:09:02.360Z,20.3
2023-09-14T05:10:02.261Z,19.9
2023-09-14T05:11:02.357Z,20.7
2023-09-14T05:12:02.242Z,20.6
2023-09-14T05:13:04.663Z,20.1
2023-09-14T05:14:01.480Z,20.1
2023-09-14T05:15:01.508Z,19.7
2023-09-14T05:16:01.463Z,19.9
2023-09-14T05:17:01.394Z,19.9
2023-09-14T05:18:01.313Z,20.4
2023-09-14T05:19:04.020Z,20.2
2023-09-14T05:20:02.426Z,20
2023-09-14T05:21:02.272Z,20.2
2023-09-14T05:22:02.195Z,20.3
2023-09-14T05:23:02.296Z,20.5
2023-09-14T05:24:02.073Z,19.9
2023-09-14T05:25:02.219Z,19.8
2023-09-14T05:26:02.130Z,20
2023-09-14T05:27:02.105Z,20.1
2023-09-14T05:28:01.921Z,20.6
2023-09-14T05:29:01.830Z,21
2023-09-14T05:30:01.889Z,20.4
2023-09-14T05:31:01.803Z,20
2023-09-14T05:32:01.844Z,20.3
2023-09-14T05:33:01.887Z,20.2
2023-09-14T05:34:01.791Z,20.5
2023-09-14T05:35:01.729Z,20.4
2023-09-14T05:36:01.819Z,20.5
2023-09-14T05:37:01.738Z,20.2
2023-09-14T05:38:01.694Z,20.2
2023-09-14T05:39:01.747Z,20.2
2023-09-14T05:40:01.669Z,20.2
2023-09-14T05:41:01.770Z,19.9
2023-09-14T05:42:01.748Z,19.8
2023-09-14T05:43:01.795Z,20
2023-09-14T05:44:01.683Z,19.9
2023-09-14T05:45:01.690Z,19.5
2023-09-14T05:46:01.677Z,19.6
2023-09-14T05:47:01.745Z,20
2023-09-14T05:48:02.328Z,20
2023-09-14T05:49:02.190Z,20
2023-09-14T05:50:02.341Z,19.9
2023-09-14T05:51:02.042Z,19.4
2023-09-14T05:52:02.127Z,19.3
2023-09-14T05:53:01.989Z,19.2
2023-09-14T05:54:02.059Z,19.6
2023-09-14T05:55:02.220Z,20.6
2023-09-14T05:56:02.043Z,20.3
2023-09-14T05:57:02.044Z,20
2023-09-14T05:58:02.000Z,20.2
2023-09-14T05:59:01.977Z,20.3
2023-09-14T06:00:02.058Z,19.9
2023-09-14T06:01:01.732Z,20
2023-09-14T06:02:01.729Z,20
2023-09-14T06:03:01.602Z,20.5
2023-09-14T06:04:01.730Z,20.5
2023-09-14T06:05:12.528Z,20.4
2023-09-14T06:06:02.190Z,20.2
2023-09-14T06:07:02.336Z,20
2023-09-14T06:08:02.129Z,19.6
2023-09-14T06:09:02.220Z,20
2023-09-14T06:10:02.262Z,19.6
2023-09-14T06:11:02.083Z,19.8
2023-09-14T06:12:01.990Z,20.2
2023-09-14T06:13:01.954Z,20.1
2023-09-14T06:14:02.100Z,20.2
2023-09-14T06:15:01.837Z,20
2023-09-14T06:16:01.841Z,20.3
2023-09-14T06:17:01.848Z,19.8
2023-09-14T06:18:01.764Z,20.2
2023-09-14T06:19:01.809Z,20.2
2023-09-14T06:20:02.175Z,20.1
2023-09-14T06:21:02.056Z,20
2023-09-14T06:22:01.813Z,20.1
2023-09-14T06:23:01.857Z,19.9
2023-09-14T06:24:01.710Z,20
2023-09-14T06:25:01.705Z,19.9
2023-09-14T06:26:01.560Z,20
2023-09-14T06:27:01.672Z,20.3
2023-09-14T06:28:01.385Z,20.3
2023-09-14T06:29:01.424Z,20.3
2023-09-14T06:30:02.359Z,20.5
2023-09-14T06:31:01.455Z,20.3
2023-09-14T06:32:01.491Z,20.2
2023-09-14T06:33:01.357Z,20.2
2023-09-14T06:34:02.367Z,20.3
2023-09-14T06:35:02.182Z,20.3
2023-09-14T06:36:02.230Z,20.5
2023-09-14T06:37:02.129Z,20.6
2023-09-14T06:38:02.177Z,20.5
2023-09-14T06:39:02.019Z,20.5
2023-09-14T06:40:02.243Z,20.5
2023-09-14T06:41:01.989Z,20.3
2023-09-14T06:42:02.081Z,20.3
2023-09-14T06:43:01.834Z,21
2023-09-14T06:44:01.865Z,20.5
2023-09-14T06:45:01.834Z,20.6
2023-09-14T06:46:01.697Z,20.3
2023-09-14T06:47:01.758Z,20.1
2023-09-14T06:48:01.892Z,20.2
2023-09-14T06:49:01.721Z,20.1
2023-09-14T06:50:01.613Z,20.2
2023-09-14T06:51:01.652Z,20.5
2023-09-14T06:52:01.485Z,20.5
2023-09-14T06:53:01.840Z,20.3
2023-09-14T06:54:01.868Z,20.3
2023-09-14T06:55:01.787Z,20.7
2023-09-14T06:56:01.775Z,20.6
2023-09-14T06:57:03.121Z,20.7
2023-09-14T06:58:01.967Z,20.3
2023-09-14T06:59:02.220Z,19.8
2023-09-14T07:00:02.852Z,19.9
2023-09-14T07:01:02.038Z,20.3
2023-09-14T07:02:02.090Z,20.3
2023-09-14T07:03:01.931Z,20.3
2023-09-14T07:04:02.029Z,20.6
2023-09-14T07:05:02.331Z,20.5
2023-09-14T07:06:02.352Z,20.3
2023-09-14T07:07:02.213Z,20.3
2023-09-14T07:08:02.159Z,20.6
2023-09-14T07:09:02.212Z,20.2
2023-09-14T07:10:02.099Z,20.5
2023-09-14T07:11:02.163Z,20.3
2023-09-14T07:12:02.073Z,20.3
2023-09-14T07:13:02.015Z,20.3
2023-09-14T07:14:02.055Z,20.2
2023-09-14T07:15:01.853Z,20.6
2023-09-14T07:16:01.968Z,20.8
2023-09-14T07:17:02.079Z,21.1
2023-09-14T07:18:02.260Z,20.7
2023-09-14T07:19:02.118Z,21.1
2023-09-14T07:20:02.292Z,20.8
2023-09-14T07:21:02.095Z,20.6
2023-09-14T07:22:02.234Z,20.5
2023-09-14T07:23:02.052Z,20.6
2023-09-14T07:24:02.196Z,20.6
2023-09-14T07:25:01.896Z,20.7
2023-09-14T07:26:01.849Z,20.6
2023-09-14T07:27:01.902Z,20.5
2023-09-14T07:28:01.725Z,20.4
2023-09-14T07:29:01.688Z,20.9
2023-09-14T07:30:01.881Z,20.7
2023-09-14T07:31:01.377Z,20.4
2023-09-14T07:32:02.346Z,20.5
2023-09-14T07:33:02.304Z,20.7
2023-09-14T07:34:02.343Z,20.4
2023-09-14T07:35:01.466Z,20.3
2023-09-14T07:36:01.453Z,20.5
2023-09-14T07:37:01.365Z,20.5
2023-09-14T07:38:01.472Z,20.4
2023-09-14T07:39:02.368Z,20.1
2023-09-14T07:40:02.430Z,20.3
2023-09-14T07:41:04.271Z,20.6
2023-09-14T07:42:01.944Z,20.6
2023-09-14T07:43:01.920Z,20.8
2023-09-14T07:44:01.796Z,20.9
2023-09-14T07:45:01.742Z,20.7
2023-09-14T07:46:01.403Z,20.7
2023-09-14T07:47:01.380Z,20.9
2023-09-14T07:48:02.279Z,20.8
2023-09-14T07:49:02.241Z,20.8
2023-09-14T07:50:02.174Z,20.9
2023-09-14T07:51:02.164Z,20.8
2023-09-14T07:52:02.120Z,21
2023-09-14T07:53:02.052Z,20.9
2023-09-14T07:54:02.016Z,21.1
2023-09-14T07:55:02.038Z,21.3
2023-09-14T07:56:01.929Z,21
2023-09-14T07:57:01.978Z,21
2023-09-14T07:58:01.825Z,21
2023-09-14T07:59:01.743Z,20.7
2023-09-14T08:00:02.719Z,20.6
2023-09-14T08:01:02.223Z,20.7
2023-09-14T08:02:02.174Z,20.7
2023-09-14T08:03:02.121Z,20.6
2023-09-14T08:04:02.360Z,20.8
2023-09-14T08:05:01.475Z,20.7
2023-09-14T08:06:01.736Z,20.5
2023-09-14T08:07:01.686Z,20.9
2023-09-14T08:08:01.624Z,20.7
2023-09-14T08:09:01.574Z,21
2023-09-14T08:10:01.521Z,21
2023-09-14T08:11:01.545Z,21.1
2023-09-14T08:12:01.352Z,20.9
2023-09-14T08:13:01.360Z,20.7
2023-09-14T08:14:01.300Z,20.8
2023-09-14T08:15:05.024Z,20.9
2023-09-14T08:16:02.051Z,21
2023-09-14T08:17:01.974Z,21.2
2023-09-14T08:18:01.876Z,21.3
2023-09-14T08:19:01.789Z,20.8
2023-09-14T08:20:01.716Z,21.3
2023-09-14T08:21:01.677Z,21.4
2023-09-14T08:22:01.572Z,21.5
2023-09-14T08:23:01.517Z,21.9
2023-09-14T08:24:01.379Z,21.5
2023-09-14T08:25:01.340Z,21.2
2023-09-14T08:26:02.307Z,21.5
2023-09-14T08:27:02.247Z,21.6
2023-09-14T08:28:02.377Z,21.3
2023-09-14T08:29:02.182Z,21.1
2023-09-14T08:30:02.160Z,20.9
2023-09-14T08:31:01.986Z,21
2023-09-14T08:32:02.025Z,21.3
2023-09-14T08:33:01.659Z,21.9
2023-09-14T08:34:01.643Z,21.7
2023-09-14T08:35:01.529Z,21.4
2023-09-14T08:36:01.458Z,21.7
2023-09-14T08:37:01.518Z,21.4
2023-09-14T08:38:01.330Z,21.4
2023-09-14T08:39:14.832Z,21.4
2023-09-14T08:40:01.857Z,21.2
2023-09-14T08:41:01.793Z,21.4
2023-09-14T08:42:01.743Z,21.6
2023-09-14T08:43:01.666Z,21.7
2023-09-14T08:44:01.681Z,21.6
2023-09-14T08:45:01.523Z,21.7
2023-09-14T08:46:02.270Z,21.6
2023-09-14T08:47:02.286Z,21.3
2023-09-14T08:48:02.184Z,21.2
2023-09-14T08:49:02.313Z,21.2
2023-09-14T08:50:02.166Z,21.2
2023-09-14T08:51:03.373Z,21.2
2023-09-14T08:52:02.273Z,21.2
2023-09-14T08:53:02.165Z,21.3
2023-09-14T08:54:11.161Z,21.2
2023-09-14T08:55:01.376Z,21.7
2023-09-14T08:56:01.298Z,21.8
2023-09-14T08:57:02.286Z,21.3
2023-09-14T08:58:02.361Z,21
2023-09-14T08:59:02.307Z,21.4
2023-09-14T09:00:02.136Z,21.4
2023-09-14T09:01:01.916Z,21.2
2023-09-14T09:02:01.850Z,21.3
2023-09-14T09:03:01.888Z,21.2
2023-09-14T09:04:01.967Z,21.3
2023-09-14T09:05:02.206Z,21.2
2023-09-14T09:06:02.247Z,21.4
2023-09-14T09:07:02.275Z,20.9
2023-09-14T09:08:02.153Z,21.1
2023-09-14T09:09:02.247Z,21.3
2023-09-14T09:10:02.198Z,21
2023-09-14T09:11:02.093Z,21.2
2023-09-14T09:12:02.056Z,21.2
2023-09-14T09:13:03.906Z,21.9
2023-09-14T09:14:01.677Z,21.7
2023-09-14T09:15:01.674Z,22
2023-09-14T09:16:02.241Z,22.3
2023-09-14T09:17:02.265Z,22.4
2023-09-14T09:18:02.182Z,22.3
2023-09-14T09:19:03.133Z,22.7
2023-09-14T09:20:02.559Z,22.6
2023-09-14T09:21:01.490Z,22.7
2023-09-14T09:22:01.407Z,22.2
2023-09-14T09:23:01.867Z,22.4
2023-09-14T09:24:01.807Z,22.7
2023-09-14T09:25:01.791Z,22.8
2023-09-14T09:26:01.720Z,22.8
2023-09-14T09:27:01.691Z,22.7
2023-09-14T09:28:01.646Z,22.4
2023-09-14T09:29:01.511Z,22
2023-09-14T09:30:01.462Z,22.3
2023-09-14T09:31:02.228Z,22.1
2023-09-14T09:32:02.298Z,21.9
2023-09-14T09:33:02.273Z,22
2023-09-14T09:34:02.282Z,22.5
2023-09-14T09:35:02.213Z,22.6
2023-09-14T09:36:02.215Z,22.5
2023-09-14T09:37:02.131Z,22.7
2023-09-14T09:38:02.115Z,22.6
2023-09-14T09:39:01.354Z,22.5
2023-09-14T09:40:01.277Z,22.5
2023-09-14T09:41:02.352Z,22.5
2023-09-14T09:42:02.248Z,22.6
2023-09-14T09:43:02.187Z,23.3
2023-09-14T09:44:02.133Z,23.6
2023-09-14T09:45:02.129Z,23.5
2023-09-14T09:46:01.840Z,23.4
2023-09-14T09:47:01.756Z,23.4
2023-09-14T09:48:01.699Z,23.2
2023-09-14T09:49:01.669Z,23.1
2023-09-14T09:50:01.583Z,23.2
2023-09-14T09:51:01.529Z,23.1
2023-09-14T09:52:01.535Z,23.8
2023-09-14T09:53:01.576Z,23.7
2023-09-14T09:54:01.458Z,23.5
2023-09-14T09:55:01.418Z,23.6
2023-09-14T09:56:01.332Z,23.2
2023-09-14T09:57:02.738Z,23.3
2023-09-14T09:58:01.416Z,23.3
2023-09-14T09:59:01.331Z,23
2023-09-14T10:00:02.312Z,23.2
2023-09-14T10:01:01.977Z,23.1
2023-09-14T10:02:01.982Z,22.9
2023-09-14T10:03:02.205Z,22.7
2023-09-14T10:04:01.353Z,22.8
2023-09-14T10:05:01.271Z,22.6
2023-09-14T10:06:02.231Z,22.8
2023-09-14T10:07:02.320Z,22.9
2023-09-14T10:08:02.233Z,22.6
2023-09-14T10:09:02.156Z,22.5
2023-09-14T10:10:02.134Z,22.9
2023-09-14T10:11:02.020Z,23.1
2023-09-14T10:12:01.983Z,22.8
2023-09-14T10:13:01.985Z,23.3
2023-09-14T10:14:01.949Z,23.4
2023-09-14T10:15:01.898Z,24.1
2023-09-14T10:16:01.839Z,24.2
2023-09-14T10:17:01.837Z,23.8
2023-09-14T10:18:01.791Z,24
2023-09-14T10:19:01.656Z,23.9
2023-09-14T10:20:01.625Z,23.8
2023-09-14T10:21:01.490Z,23.5
2023-09-14T10:22:01.435Z,23.7
2023-09-14T10:23:01.430Z,23.7
2023-09-14T10:24:01.327Z,23.6
2023-09-14T10:25:01.370Z,23.5
2023-09-14T10:26:01.996Z,23.6
2023-09-14T10:27:01.973Z,23.7
2023-09-14T10:28:01.956Z,23.7
2023-09-14T10:29:01.866Z,23.6
2023-09-14T10:30:01.785Z,23.5
2023-09-14T10:31:01.590Z,23.5
2023-09-14T10:32:01.497Z,23.4
2023-09-14T10:33:01.494Z,23.5
2023-09-14T10:34:01.497Z,23.2
2023-09-14T10:35:06.488Z,23.7
2023-09-14T10:36:02.005Z,23.4
2023-09-14T10:37:01.964Z,23.6
2023-09-14T10:38:01.980Z,23.5
2023-09-14T10:39:01.529Z,23.6
2023-09-14T10:40:01.460Z,23.5
2023-09-14T10:41:02.955Z,23.3
2023-09-14T10:42:01.350Z,23.3
2023-09-14T10:43:01.417Z,23.1
2023-09-14T10:44:02.377Z,23
2023-09-14T10:45:02.216Z,22.8
2023-09-14T10:46:02.340Z,23
2023-09-14T10:47:03.891Z,23
2023-09-14T10:48:02.093Z,22.9
2023-09-14T10:49:02.193Z,22.7
2023-09-14T10:50:02.219Z,22.8
2023-09-14T10:51:02.051Z,22.7
2023-09-14T10:52:01.929Z,22.6
2023-09-14T10:53:01.860Z,22.6
2023-09-14T10:54:01.888Z,22.5
2023-09-14T10:55:01.763Z,22.5
2023-09-14T10:56:01.702Z,22.7
2023-09-14T10:57:01.673Z,22.9
2023-09-14T10:58:01.543Z,22.9
2023-09-14T10:59:01.464Z,22.9
2023-09-14T11:00:10.356Z,22.8
2023-09-14T11:02:17.424Z,22.8
2023-09-14T11:03:19.743Z,22.5
2023-09-14T11:04:01.466Z,22.5
2023-09-14T11:05:07.098Z,22.7
2023-09-14T11:06:02.307Z,22.7
2023-09-14T11:07:02.058Z,22.9
2023-09-14T11:08:02.482Z,22.7
2023-09-14T11:09:03.898Z,22.5
2023-09-14T11:10:02.352Z,22.5
2023-09-14T11:11:03.412Z,22.4
2023-09-14T11:12:02.526Z,22.3
2023-09-14T11:13:02.047Z,22.4
2023-09-14T11:14:03.186Z,22.4
2023-09-14T11:15:02.462Z,22.6
2023-09-14T11:16:02.254Z,22.6
2023-09-14T11:17:02.958Z,22.9
2023-09-14T11:18:01.731Z,22.8
2023-09-14T11:19:02.578Z,22.9
2023-09-14T11:20:02.441Z,23.1
2023-09-14T11:21:03.026Z,23.1
2023-09-14T11:22:01.683Z,22.8
2023-09-14T11:23:01.642Z,23.2
2023-09-14T11:24:02.651Z,22.8
2023-09-14T11:25:06.809Z,22.9
2023-09-14T11:26:12.257Z,22.8
2023-09-14T11:27:01.651Z,22.6
2023-09-14T11:28:03.930Z,22.9
2023-09-14T11:29:02.724Z,22.5
2023-09-14T11:30:04.599Z,22.6
2023-09-14T11:31:01.488Z,22.4
2023-09-14T11:32:06.757Z,22.3
2023-09-14T11:33:01.844Z,22.7
2023-09-14T11:34:01.510Z,22.8
2023-09-14T11:35:05.128Z,22.5
2023-09-14T11:36:03.923Z,22.6
2023-09-14T11:37:03.324Z,22.2
2023-09-14T11:38:04.108Z,22.2
2023-09-14T11:39:02.874Z,22.3
2023-09-14T11:40:05.296Z,22.6
2023-09-14T11:41:15.549Z,22.5
2023-09-14T11:42:04.336Z,22.2
2023-09-14T11:43:05.110Z,22.1
2023-09-14T11:44:15.314Z,22.3
2023-09-14T11:45:06.299Z,22.2
2023-09-14T11:46:04.471Z,22.3
2023-09-14T11:47:03.697Z,22.7
2023-09-14T11:48:03.379Z,22.7
2023-09-14T11:50:01.628Z,22.5
2023-09-14T11:51:05.717Z,22
2023-09-14T11:52:01.595Z,22.1
2023-09-14T11:53:01.689Z,22.1
2023-09-14T11:54:01.432Z,22.3
2023-09-14T11:55:01.426Z,22.2
2023-09-14T11:56:01.283Z,22.4
2023-09-14T11:57:02.394Z,22
2023-09-14T11:58:02.251Z,21.5
2023-09-14T11:59:02.258Z,21.7
2023-09-14T12:00:03.031Z,21.9
2023-09-14T12:01:02.076Z,21.6
2023-09-14T12:02:01.491Z,21.6
2023-09-14T12:03:01.391Z,21.8
2023-09-14T12:04:01.549Z,21.8
2023-09-14T12:05:01.569Z,21.7
2023-09-14T12:06:01.749Z,21.6
2023-09-14T12:07:01.424Z,22.2
2023-09-14T12:08:01.457Z,22.2
2023-09-14T12:09:01.302Z,22.2
2023-09-14T12:10:02.452Z,22.2
2023-09-14T12:11:01.317Z,22.2
2023-09-14T12:12:02.319Z,22
2023-09-14T12:13:02.206Z,22.3
2023-09-14T12:14:02.295Z,22.5
2023-09-14T12:15:02.100Z,22.3
2023-09-14T12:16:02.088Z,22.1
2023-09-14T12:17:01.912Z,21.8
2023-09-14T12:18:01.785Z,22.2
2023-09-14T12:19:01.753Z,22.1
2023-09-14T12:20:02.281Z,22.3
2023-09-14T12:21:02.175Z,22.3
2023-09-14T12:22:02.019Z,22.1
2023-09-14T12:23:02.045Z,21.9
2023-09-14T12:24:01.891Z,21.5
2023-09-14T12:25:01.957Z,21.9
2023-09-14T12:26:01.911Z,21.9
2023-09-14T12:27:01.747Z,21.8
2023-09-14T12:28:01.782Z,21.9
2023-09-14T12:29:01.652Z,21.8
2023-09-14T12:30:01.869Z,22
2023-09-14T12:31:01.570Z,22.1
2023-09-14T12:32:01.605Z,22
2023-09-14T12:33:01.503Z,22.1
2023-09-14T12:34:01.672Z,22
2023-09-14T12:35:01.631Z,22
2023-09-14T12:36:01.942Z,22
2023-09-14T12:37:01.949Z,21.7
2023-09-14T12:38:01.849Z,21.8
2023-09-14T12:39:01.799Z,22.2
2023-09-14T12:40:01.876Z,22.2
2023-09-14T12:41:01.651Z,22.3
2023-09-14T12:42:01.700Z,22.3
2023-09-14T12:43:01.519Z,21.9
2023-09-14T12:44:01.465Z,21.9
2023-09-14T12:45:01.330Z,21.7
2023-09-14T12:46:01.516Z,22.5
2023-09-14T12:47:01.919Z,22.3
2023-09-14T12:48:01.722Z,22.3
2023-09-14T12:49:01.731Z,22.4
2023-09-14T12:50:01.553Z,23.2
2023-09-14T12:51:01.643Z,23
2023-09-14T12:52:01.396Z,22.4
2023-09-14T12:53:02.015Z,22.5
2023-09-14T12:54:02.057Z,22.3
2023-09-14T12:55:01.944Z,23
2023-09-14T12:56:01.845Z,23
2023-09-14T12:57:01.892Z,23.4
2023-09-14T12:58:01.765Z,22.7
2023-09-14T12:59:02.006Z,22.3
2023-09-14T13:00:02.392Z,22.1
2023-09-14T13:01:02.115Z,22.1
2023-09-14T13:02:01.971Z,22
2023-09-14T13:03:01.896Z,21.9
2023-09-14T13:04:01.822Z,22.3
2023-09-14T13:05:01.873Z,22.6
2023-09-14T13:06:01.788Z,22.5
2023-09-14T13:07:01.668Z,23.1
2023-09-14T13:08:01.849Z,22.5
2023-09-14T13:09:01.628Z,22.7
2023-09-14T13:10:01.700Z,23.3
2023-09-14T13:11:01.540Z,23.5
2023-09-14T13:12:01.629Z,23.3
2023-09-14T13:13:01.454Z,23
2023-09-14T13:14:01.521Z,23.5
2023-09-14T13:15:01.346Z,23.8
2023-09-14T13:16:01.377Z,23.5
2023-09-14T13:17:01.507Z,23
2023-09-14T13:18:01.473Z,23.3
2023-09-14T13:19:02.415Z,23.7
2023-09-14T13:20:01.275Z,23.8
2023-09-14T13:21:02.366Z,23.8
2023-09-14T13:22:02.251Z,23.1
2023-09-14T13:23:02.362Z,22.7
2023-09-14T13:24:02.246Z,22.5
2023-09-14T13:25:01.704Z,22.9